createdAt,value
2023-10-08T00:00:48.546Z,71.83
2023-10-08T00:01:48.762Z,71.77
2023-10-08T00:02:49.089Z,72.16
2023-10-08T00:03:49.184Z,72.06
2023-10-08T00:04:49.260Z,71.66
2023-10-08T00:05:49.503Z,72.06
2023-10-08T00:06:49.620Z,72.06
2023-10-08T00:07:51.613Z,71.96
2023-10-08T00:08:50.069Z,71.46
2023-10-08T00:09:50.221Z,71.66
2023-10-08T00:10:50.414Z,71.26
2023-10-08T00:11:50.618Z,71.77
2023-10-08T00:12:50.751Z,71.66
2023-10-08T00:13:50.968Z,72.47
2023-10-08T00:14:51.135Z,72.06
2023-10-08T00:15:51.337Z,71.96
2023-10-08T00:16:51.580Z,72.06
2023-10-08T00:17:51.869Z,72.47
2023-10-08T00:18:52.513Z,72.47
2023-10-08T00:19:52.075Z,71.96
2023-10-08T00:20:52.294Z,72.36
2023-10-08T00:21:52.460Z,72.36
2023-10-08T00:22:52.621Z,72.56
2023-10-08T00:23:52.811Z,72.36
2023-10-08T00:24:53.009Z,72.47
2023-10-08T00:25:53.148Z,72.66
2023-10-08T00:26:53.366Z,71.96
2023-10-08T00:27:53.497Z,71.66
2023-10-08T00:28:53.658Z,72.36
2023-10-08T00:29:53.878Z,72.77
2023-10-08T00:30:54.074Z,72.06
2023-10-08T00:31:54.247Z,72.77
2023-10-08T00:32:54.476Z,71.96
2023-10-08T00:33:54.572Z,72.06
2023-10-08T00:34:54.787Z,71.96
2023-10-08T00:35:54.978Z,71.77
2023-10-08T00:36:55.152Z,71.80
2023-10-08T00:37:55.311Z,71.90
2023-10-08T00:38:55.491Z,71.96
2023-10-08T00:39:55.699Z,71.86
2023-10-08T00:40:55.891Z,71.90
2023-10-08T00:41:56.057Z,72.00
2023-10-08T00:42:56.235Z,72.20
2023-10-08T00:43:56.402Z,72.20
2023-10-08T00:44:56.587Z,72.30
2023-10-08T00:45:56.781Z,72.09
2023-10-08T00:46:57.008Z,72.20
2023-10-08T00:47:57.212Z,72.00
2023-10-08T00:48:57.292Z,72.30
2023-10-08T00:49:57.461Z,72.09
2023-10-08T00:50:57.678Z,72.00
2023-10-08T00:51:57.832Z,72.30
2023-10-08T00:52:58.014Z,72.70
2023-10-08T00:53:58.203Z,72.00
2023-10-08T00:54:58.388Z,71.70
2023-10-08T00:55:58.598Z,71.50
2023-10-08T00:56:58.797Z,72.00
2023-10-08T00:57:59.167Z,72.20
2023-10-08T00:58:59.109Z,72.50
2023-10-08T00:59:59.309Z,72.70
2023-10-08T01:00:59.498Z,72.50
2023-10-08T01:01:59.675Z,72.50
2023-10-08T01:02:59.933Z,72.80
2023-10-08T01:04:00.025Z,72.60
2023-10-08T01:05:00.208Z,72.40
2023-10-08T01:06:00.371Z,72.80
2023-10-08T01:07:00.582Z,72.90
2023-10-08T01:08:00.729Z,72.30
2023-10-08T01:09:00.905Z,72.70
2023-10-08T01:10:01.154Z,72.30
2023-10-08T01:11:01.267Z,72.30
2023-10-08T01:12:01.452Z,72.40
2023-10-08T01:13:01.612Z,73.20
2023-10-08T01:14:01.804Z,73.20
2023-10-08T01:15:01.997Z,72.80
2023-10-08T01:16:02.153Z,72.40
2023-10-08T01:17:02.415Z,72.60
2023-10-08T01:18:02.888Z,72.20
2023-10-08T01:19:02.706Z,72.09
2023-10-08T01:20:02.910Z,72.50
2023-10-08T01:21:03.112Z,72.50
2023-10-08T01:22:03.282Z,72.30
2023-10-08T01:23:03.497Z,71.90
2023-10-08T01:24:03.653Z,72.09
2023-10-08T01:25:03.850Z,72.20
2023-10-08T01:26:04.052Z,72.20
2023-10-08T01:27:04.201Z,72.30
2023-10-08T01:28:04.400Z,72.50
2023-10-08T01:29:04.544Z,72.40
2023-10-08T01:30:04.749Z,72.20
2023-10-08T01:31:05.242Z,72.30
2023-10-08T01:32:05.112Z,72.40
2023-10-08T01:33:05.402Z,72.50
2023-10-08T01:34:05.456Z,72.09
2023-10-08T01:35:05.635Z,72.20
2023-10-08T01:36:05.839Z,71.59
2023-10-08T01:37:05.998Z,71.90
2023-10-08T01:38:06.173Z,71.90
2023-10-08T01:39:06.388Z,72.00
2023-10-08T01:40:06.523Z,72.16
2023-10-08T01:41:06.728Z,71.90
2023-10-08T01:42:06.867Z,72.27
2023-10-08T01:43:07.074Z,71.90
2023-10-08T01:44:07.239Z,71.77
2023-10-08T01:45:07.417Z,72.20
2023-10-08T01:46:07.652Z,71.96
2023-10-08T01:47:07.800Z,71.80
2023-10-08T01:48:08.085Z,72.06
2023-10-08T01:49:08.164Z,71.36
2023-10-08T01:50:08.327Z,71.56
2023-10-08T01:51:08.513Z,71.56
2023-10-08T01:52:08.692Z,71.36
2023-10-08T01:53:08.886Z,71.66
2023-10-08T01:54:09.092Z,72.06
2023-10-08T01:55:09.251Z,71.66
2023-10-08T01:56:09.406Z,71.86
2023-10-08T01:57:09.600Z,71.46
2023-10-08T01:58:09.805Z,72.06
2023-10-08T01:59:10.160Z,72.06
2023-10-08T02:00:10.152Z,71.46
2023-10-08T02:01:10.438Z,71.16
2023-10-08T02:02:10.677Z,71.86
2023-10-08T02:03:10.876Z,71.77
2023-10-08T02:04:11.074Z,71.86
2023-10-08T02:05:11.199Z,71.96
2023-10-08T02:06:11.222Z,71.66
2023-10-08T02:07:11.426Z,71.46
2023-10-08T02:08:11.646Z,71.86
2023-10-08T02:09:12.012Z,71.46
2023-10-08T02:10:11.959Z,70.86
2023-10-08T02:11:12.251Z,71.26
2023-10-08T02:12:12.340Z,71.16
2023-10-08T02:13:12.571Z,71.46
2023-10-08T02:14:12.744Z,71.50
2023-10-08T02:15:12.925Z,71.70
2023-10-08T02:16:13.148Z,71.30
2023-10-08T02:17:13.340Z,71.39
2023-10-08T02:18:13.608Z,71.86
2023-10-08T02:19:14.040Z,71.39
2023-10-08T02:20:14.026Z,71.50
2023-10-08T02:21:14.025Z,71.20
2023-10-08T02:22:14.218Z,70.79
2023-10-08T02:23:14.481Z,70.79
2023-10-08T02:24:14.581Z,70.69
2023-10-08T02:25:14.779Z,71.00
2023-10-08T02:26:15.016Z,71.39
2023-10-08T02:27:15.181Z,71.39
2023-10-08T02:28:15.362Z,72.30
2023-10-08T02:29:15.626Z,71.39
2023-10-08T02:30:15.761Z,71.20
2023-10-08T02:31:15.919Z,70.79
2023-10-08T02:32:16.175Z,70.69
2023-10-08T02:33:16.393Z,71.50
2023-10-08T02:34:16.464Z,71.80
2023-10-08T02:35:16.695Z,71.59
2023-10-08T02:36:16.886Z,71.00
2023-10-08T02:37:17.038Z,71.50
2023-10-08T02:38:17.382Z,71.90
2023-10-08T02:39:17.424Z,71.50
2023-10-08T02:40:17.608Z,71.39
2023-10-08T02:41:17.814Z,71.39
2023-10-08T02:42:17.949Z,71.09
2023-10-08T02:43:18.126Z,71.30
2023-10-08T02:44:18.719Z,71.20
2023-10-08T02:45:18.458Z,71.30
2023-10-08T02:46:18.668Z,71.59
2023-10-08T02:47:18.848Z,71.39
2023-10-08T02:48:19.691Z,71.00
2023-10-08T02:49:19.249Z,71.20
2023-10-08T02:50:19.465Z,71.59
2023-10-08T02:51:19.592Z,71.70
2023-10-08T02:52:19.757Z,71.70
2023-10-08T02:53:19.971Z,72.00
2023-10-08T02:54:20.120Z,71.30
2023-10-08T02:55:20.315Z,71.30
2023-10-08T02:56:20.532Z,72.09
2023-10-08T02:57:20.697Z,71.70
2023-10-08T02:58:20.900Z,72.30
2023-10-08T02:59:21.149Z,71.39
2023-10-08T03:00:21.266Z,72.00
2023-10-08T03:01:21.435Z,71.39
2023-10-08T03:02:21.690Z,71.70
2023-10-08T03:03:21.861Z,71.20
2023-10-08T03:04:22.003Z,71.39
2023-10-08T03:05:22.169Z,72.00
2023-10-08T03:06:22.354Z,71.50
2023-10-08T03:07:22.790Z,71.80
2023-10-08T03:08:23.108Z,71.39
2023-10-08T03:09:22.898Z,71.39
2023-10-08T03:10:23.046Z,71.80
2023-10-08T03:11:23.265Z,71.30
2023-10-08T03:12:23.416Z,71.50
2023-10-08T03:13:23.638Z,71.59
2023-10-08T03:14:24.037Z,71.80
2023-10-08T03:15:24.015Z,71.90
2023-10-08T03:16:24.226Z,71.39
2023-10-08T03:17:24.389Z,71.39
2023-10-08T03:18:24.562Z,71.50
2023-10-08T03:19:24.766Z,71.20
2023-10-08T03:20:24.983Z,71.70
2023-10-08T03:21:25.580Z,71.39
2023-10-08T03:22:25.259Z,71.59
2023-10-08T03:23:25.504Z,71.50
2023-10-08T03:24:25.811Z,71.00
2023-10-08T03:25:26.025Z,71.20
2023-10-08T03:26:26.012Z,71.20
2023-10-08T03:27:26.226Z,70.79
2023-10-08T03:28:26.409Z,71.39
2023-10-08T03:29:26.604Z,71.20
2023-10-08T03:30:26.742Z,71.00
2023-10-08T03:31:26.980Z,71.09
2023-10-08T03:32:27.242Z,71.50
2023-10-08T03:33:27.343Z,71.70
2023-10-08T03:34:27.498Z,71.39
2023-10-08T03:35:27.711Z,71.59
2023-10-08T03:36:27.887Z,71.90
2023-10-08T03:37:28.031Z,71.53
2023-10-08T03:38:28.312Z,71.73
2023-10-08T03:39:28.387Z,71.90
2023-10-08T03:40:28.609Z,71.53
2023-10-08T03:41:29.444Z,71.53
2023-10-08T03:42:28.968Z,71.53
2023-10-08T03:43:29.130Z,71.43
2023-10-08T03:44:29.335Z,71.59
2023-10-08T03:45:29.526Z,71.53
2023-10-08T03:46:29.647Z,71.43
2023-10-08T03:47:29.890Z,71.43
2023-10-08T03:48:30.048Z,70.73
2023-10-08T03:49:30.224Z,71.13
2023-10-08T03:50:30.457Z,71.53
2023-10-08T03:51:30.589Z,71.73
2023-10-08T03:52:30.770Z,71.50
2023-10-08T03:53:30.973Z,71.73
2023-10-08T03:54:31.486Z,71.93
2023-10-08T03:55:31.357Z,71.70
2023-10-08T03:56:31.648Z,71.83
2023-10-08T03:57:31.671Z,71.80
2023-10-08T03:58:31.859Z,71.50
2023-10-08T03:59:32.076Z,71.59
2023-10-08T04:00:32.191Z,71.39
2023-10-08T04:01:32.385Z,71.70
2023-10-08T04:02:32.688Z,71.39
2023-10-08T04:03:32.806Z,71.30
2023-10-08T04:04:32.930Z,71.70
2023-10-08T04:05:33.159Z,71.50
2023-10-08T04:06:33.272Z,71.09
2023-10-08T04:07:33.486Z,71.09
2023-10-08T04:08:33.711Z,71.20
2023-10-08T04:09:33.868Z,71.09
2023-10-08T04:10:34.051Z,71.09
2023-10-08T04:11:34.279Z,71.20
2023-10-08T04:12:34.397Z,71.00
2023-10-08T04:13:34.608Z,71.20
2023-10-08T04:14:34.784Z,71.09
2023-10-08T04:15:34.947Z,71.00
2023-10-08T04:16:35.138Z,70.59
2023-10-08T04:17:35.359Z,70.59
2023-10-08T04:18:35.555Z,71.00
2023-10-08T04:19:35.674Z,71.39
2023-10-08T04:20:35.873Z,71.30
2023-10-08T04:21:35.989Z,71.50
2023-10-08T04:22:36.180Z,71.50
2023-10-08T04:23:36.428Z,71.59
2023-10-08T04:24:36.531Z,71.80
2023-10-08T04:25:36.762Z,71.50
2023-10-08T04:26:36.960Z,71.39
2023-10-08T04:27:37.086Z,70.89
2023-10-08T04:28:37.268Z,71.30
2023-10-08T04:29:37.503Z,71.90
2023-10-08T04:30:37.621Z,71.20
2023-10-08T04:31:37.927Z,71.00
2023-10-08T04:32:38.062Z,71.30
2023-10-08T04:33:38.246Z,71.30
2023-10-08T04:34:38.349Z,70.89
2023-10-08T04:35:38.597Z,71.30
2023-10-08T04:36:38.727Z,71.09
2023-10-08T04:37:38.934Z,70.79
2023-10-08T04:38:39.145Z,71.09
2023-10-08T04:39:39.288Z,71.50
2023-10-08T04:40:39.471Z,71.30
2023-10-08T04:41:39.683Z,70.89
2023-10-08T04:42:41.853Z,71.50
2023-10-08T04:43:40.078Z,71.20
2023-10-08T04:44:40.404Z,71.09
2023-10-08T04:45:40.424Z,71.39
2023-10-08T04:46:40.660Z,70.79
2023-10-08T04:47:40.935Z,71.00
2023-10-08T04:48:41.006Z,71.30
2023-10-08T04:49:41.136Z,71.00
2023-10-08T04:50:41.379Z,71.39
2023-10-08T04:51:41.541Z,71.09
2023-10-08T04:52:41.708Z,70.89
2023-10-08T04:53:42.007Z,71.09
2023-10-08T04:54:42.070Z,70.69
2023-10-08T04:55:42.250Z,71.30
2023-10-08T04:56:42.475Z,70.59
2023-10-08T04:57:42.641Z,71.00
2023-10-08T04:58:42.841Z,70.79
2023-10-08T04:59:43.113Z,71.20
2023-10-08T05:00:43.207Z,70.89
2023-10-08T05:01:43.317Z,71.30
2023-10-08T05:02:43.606Z,70.59
2023-10-08T05:03:43.785Z,70.50
2023-10-08T05:04:43.903Z,70.89
2023-10-08T05:05:44.123Z,70.79
2023-10-08T05:06:44.265Z,70.59
2023-10-08T05:07:44.452Z,71.00
2023-10-08T05:08:44.700Z,70.79
2023-10-08T05:09:44.842Z,70.39
2023-10-08T05:10:45.015Z,70.79
2023-10-08T05:11:45.261Z,70.89
2023-10-08T05:12:45.413Z,70.29
2023-10-08T05:13:45.589Z,70.79
2023-10-08T05:14:45.759Z,70.79
2023-10-08T05:15:45.947Z,71.00
2023-10-08T05:16:46.104Z,70.59
2023-10-08T05:17:46.369Z,70.63
2023-10-08T05:18:46.484Z,71.03
2023-10-08T05:19:46.616Z,70.53
2023-10-08T05:20:46.860Z,71.23
2023-10-08T05:21:46.975Z,70.83
2023-10-08T05:22:47.173Z,70.53
2023-10-08T05:23:47.410Z,70.32
2023-10-08T05:24:47.518Z,70.23
2023-10-08T05:25:47.713Z,70.32
2023-10-08T05:26:47.920Z,70.63
2023-10-08T05:27:48.017Z,70.83
2023-10-08T05:28:48.235Z,70.53
2023-10-08T05:29:48.445Z,71.13
2023-10-08T05:30:48.573Z,70.73
2023-10-08T05:31:48.726Z,70.63
2023-10-08T05:32:49.017Z,70.73
2023-10-08T05:33:49.095Z,70.73
2023-10-08T05:34:49.271Z,70.83
2023-10-08T05:35:49.544Z,71.33
2023-10-08T05:36:49.646Z,70.96
2023-10-08T05:37:49.782Z,70.96
2023-10-08T05:38:50.222Z,70.86
2023-10-08T05:39:50.169Z,71.06
2023-10-08T05:40:50.351Z,70.96
2023-10-08T05:41:50.599Z,71.16
2023-10-08T05:42:50.730Z,71.26
2023-10-08T05:43:50.945Z,70.86
2023-10-08T05:44:51.112Z,71.56
2023-10-08T05:45:51.286Z,71.16
2023-10-08T05:46:51.491Z,71.06
2023-10-08T05:47:51.709Z,71.16
2023-10-08T05:48:51.801Z,71.36
2023-10-08T05:49:51.976Z,70.83
2023-10-08T05:50:52.208Z,70.96
2023-10-08T05:51:52.392Z,70.83
2023-10-08T05:52:52.543Z,70.83
2023-10-08T05:53:52.745Z,70.63
2023-10-08T05:54:52.897Z,70.93
2023-10-08T05:55:53.026Z,71.23
2023-10-08T05:56:53.199Z,70.63
2023-10-08T05:57:53.401Z,70.93
2023-10-08T05:58:53.565Z,70.93
2023-10-08T05:59:54.050Z,71.13
2023-10-08T06:00:53.927Z,70.63
2023-10-08T06:01:54.105Z,70.63
2023-10-08T06:02:54.402Z,71.23
2023-10-08T06:03:54.618Z,70.63
2023-10-08T06:04:54.780Z,70.53
2023-10-08T06:05:54.893Z,70.73
2023-10-08T06:06:55.058Z,70.63
2023-10-08T06:07:55.291Z,70.23
2023-10-08T06:08:55.468Z,70.43
2023-10-08T06:09:55.636Z,70.23
2023-10-08T06:10:55.803Z,70.32
2023-10-08T06:11:57.375Z,70.93
2023-10-08T06:12:56.199Z,71.03
2023-10-08T06:13:56.342Z,70.03
2023-10-08T06:14:56.563Z,69.92
2023-10-08T06:15:56.744Z,70.63
2023-10-08T06:16:56.999Z,69.73
2023-10-08T06:17:58.968Z,69.89
2023-10-08T06:18:57.297Z,69.99
2023-10-08T06:19:57.464Z,70.19
2023-10-08T06:20:57.672Z,70.59
2023-10-08T06:21:57.828Z,70.09
2023-10-08T06:22:58.048Z,70.29
2023-10-08T06:23:58.227Z,70.09
2023-10-08T06:24:58.416Z,70.09
2023-10-08T06:25:58.593Z,69.99
2023-10-08T06:26:58.832Z,70.29
2023-10-08T06:27:59.196Z,69.79
2023-10-08T06:28:59.157Z,70.19
2023-10-08T06:29:59.371Z,69.89
2023-10-08T06:30:59.558Z,69.89
2023-10-08T06:31:59.695Z,69.79
2023-10-08T06:33:00.030Z,69.59
2023-10-08T06:34:00.091Z,69.59
2023-10-08T06:35:00.266Z,69.89
2023-10-08T06:36:00.480Z,69.99
2023-10-08T06:37:00.683Z,70.09
2023-10-08T06:38:00.908Z,69.56
2023-10-08T06:39:01.029Z,69.66
2023-10-08T06:40:01.219Z,69.66
2023-10-08T06:41:01.443Z,69.16
2023-10-08T06:42:01.655Z,69.35
2023-10-08T06:43:01.760Z,69.26
2023-10-08T06:44:01.971Z,69.06
2023-10-08T06:45:02.178Z,68.76
2023-10-08T06:46:02.350Z,68.85
2023-10-08T06:47:02.542Z,69.16
2023-10-08T06:48:02.770Z,68.46
2023-10-08T06:49:05.335Z,68.55
2023-10-08T06:50:03.102Z,69.26
2023-10-08T06:51:03.280Z,68.55
2023-10-08T06:52:03.476Z,68.62
2023-10-08T06:53:03.605Z,68.82
2023-10-08T06:54:04.111Z,68.42
2023-10-08T06:55:04.011Z,68.62
2023-10-08T06:56:04.175Z,68.85
2023-10-08T06:57:04.431Z,68.82
2023-10-08T06:58:04.518Z,68.62
2023-10-08T06:59:04.709Z,68.32
2023-10-08T07:00:04.913Z,68.52
2023-10-08T07:01:05.136Z,68.42
2023-10-08T07:02:05.300Z,68.32
2023-10-08T07:03:05.621Z,68.42
2023-10-08T07:04:05.806Z,67.92
2023-10-08T07:05:05.864Z,68.02
2023-10-08T07:06:06.017Z,68.22
2023-10-08T07:07:06.194Z,68.22
2023-10-08T07:08:06.399Z,68.12
2023-10-08T07:09:06.811Z,68.02
2023-10-08T07:10:06.730Z,68.12
2023-10-08T07:11:06.920Z,68.12
2023-10-08T07:12:07.237Z,68.52
2023-10-08T07:13:07.274Z,67.52
2023-10-08T07:14:07.478Z,67.39
2023-10-08T07:15:07.669Z,67.69
2023-10-08T07:16:07.840Z,67.49
2023-10-08T07:17:08.072Z,67.59
2023-10-08T07:18:08.334Z,67.49
2023-10-08T07:19:08.402Z,67.59
2023-10-08T07:20:08.581Z,67.79
2023-10-08T07:21:08.772Z,67.49
2023-10-08T07:22:08.973Z,67.39
2023-10-08T07:23:09.179Z,67.69
2023-10-08T07:24:09.330Z,68.09
2023-10-08T07:25:09.519Z,67.09
2023-10-08T07:26:09.760Z,66.96
2023-10-08T07:27:09.914Z,66.55
2023-10-08T07:28:10.043Z,66.66
2023-10-08T07:29:10.231Z,66.25
2023-10-08T07:30:10.470Z,66.25
2023-10-08T07:31:10.629Z,66.16
2023-10-08T07:32:10.818Z,66.16
2023-10-08T07:33:11.057Z,66.25
2023-10-08T07:35:11.353Z,66.25
2023-10-08T07:36:11.534Z,66.25
2023-10-08T07:37:11.730Z,66.16
2023-10-08T07:38:11.904Z,66.05
2023-10-08T07:39:12.072Z,65.95
2023-10-08T07:40:12.246Z,66.72
2023-10-08T07:41:12.441Z,66.42
2023-10-08T07:42:13.593Z,66.02
2023-10-08T07:43:12.809Z,66.02
2023-10-08T07:44:13.134Z,66.52
2023-10-08T07:45:13.136Z,65.92
2023-10-08T07:46:13.320Z,65.72
2023-10-08T07:47:13.828Z,65.72
2023-10-08T07:48:13.743Z,65.62
2023-10-08T07:49:13.891Z,65.42
2023-10-08T07:50:14.040Z,65.62
2023-10-08T07:51:14.211Z,65.99
2023-10-08T07:52:14.431Z,65.29
2023-10-08T07:53:14.600Z,65.89
2023-10-08T07:54:14.951Z,65.59
2023-10-08T07:55:15.010Z,64.99
2023-10-08T07:56:15.178Z,65.36
2023-10-08T07:57:15.367Z,64.86
2023-10-08T07:58:15.565Z,64.66
2023-10-08T07:59:15.785Z,65.66
2023-10-08T08:00:15.932Z,64.66
2023-10-08T08:01:16.098Z,64.46
2023-10-08T08:02:17.078Z,65.06
2023-10-08T08:03:16.606Z,63.83
2023-10-08T08:04:16.678Z,63.33
2023-10-08T08:05:16.854Z,64.03
2023-10-08T08:06:17.045Z,62.43
2023-10-08T08:07:17.818Z,63.53
2023-10-08T08:08:17.360Z,62.13
2023-10-08T08:09:17.581Z,63.20
2023-10-08T08:10:17.802Z,64.20
2023-10-08T08:11:17.964Z,62.90
2023-10-08T08:12:18.136Z,63.80
2023-10-08T08:13:18.364Z,64.00
2023-10-08T08:14:18.513Z,63.80
2023-10-08T08:15:18.714Z,62.48
2023-10-08T08:16:18.912Z,63.87
2023-10-08T08:17:19.078Z,62.27
2023-10-08T08:18:19.357Z,61.57
2023-10-08T08:19:19.483Z,61.98
2023-10-08T08:20:19.729Z,61.47
2023-10-08T08:21:19.800Z,60.28
2023-10-08T08:22:20.140Z,61.18
2023-10-08T08:23:20.201Z,62.64
2023-10-08T08:24:20.361Z,63.84
2023-10-08T08:25:20.585Z,61.55
2023-10-08T08:26:20.759Z,62.64
2023-10-08T08:27:20.949Z,63.21
2023-10-08T08:28:21.148Z,61.61
2023-10-08T08:29:21.332Z,62.91
2023-10-08T08:30:21.664Z,63.18
2023-10-08T08:31:21.706Z,62.38
2023-10-08T08:32:21.935Z,61.79
2023-10-08T08:33:22.084Z,61.55
2023-10-08T08:34:22.264Z,59.47
2023-10-08T08:35:22.473Z,59.06
2023-10-08T08:36:22.704Z,61.33
2023-10-08T08:37:22.787Z,60.73
2023-10-08T08:38:23.016Z,60.93
2023-10-08T08:39:23.202Z,59.83
2023-10-08T08:40:23.510Z,57.71
2023-10-08T08:41:23.571Z,58.51
2023-10-08T08:42:23.750Z,59.51
2023-10-08T08:43:23.935Z,59.21
2023-10-08T08:44:24.185Z,58.88
2023-10-08T08:45:24.343Z,59.38
2023-10-08T08:46:24.524Z,58.48
2023-10-08T08:47:25.520Z,58.09
2023-10-08T08:48:24.927Z,58.65
2023-10-08T08:49:25.066Z,56.67
2023-10-08T08:50:29.121Z,56.07
2023-10-08T08:51:30.263Z,55.87
2023-10-08T08:52:25.642Z,54.75
2023-10-08T08:53:25.807Z,55.05
2023-10-08T08:54:25.991Z,54.55
2023-10-08T08:55:26.163Z,55.05
2023-10-08T08:56:26.351Z,54.95
2023-10-08T08:57:26.516Z,54.93
2023-10-08T08:58:26.679Z,54.03
2023-10-08T08:59:26.917Z,53.73
2023-10-08T09:00:27.050Z,55.02
2023-10-08T09:01:27.322Z,53.80
2023-10-08T09:02:27.583Z,54.40
2023-10-08T09:03:27.718Z,53.91
2023-10-08T09:04:27.868Z,55.00
2023-10-08T09:05:28.479Z,53.98
2023-10-08T09:06:28.215Z,52.98
2023-10-08T09:07:28.367Z,53.19
2023-10-08T09:08:28.611Z,54.55
2023-10-08T09:09:28.730Z,54.35
2023-10-08T09:10:29.014Z,53.85
2023-10-08T09:11:29.156Z,53.45
2023-10-08T09:12:29.351Z,52.14
2023-10-08T09:13:29.521Z,52.54
2023-10-08T09:14:29.717Z,52.94
2023-10-08T09:15:29.868Z,52.51
2023-10-08T09:16:30.090Z,51.92
2023-10-08T09:17:30.316Z,51.12
2023-10-08T09:18:30.469Z,50.51
2023-10-08T09:19:30.588Z,51.00
2023-10-08T09:20:30.805Z,51.00
2023-10-08T09:21:30.949Z,50.81
2023-10-08T09:22:31.141Z,50.18
2023-10-08T09:23:31.359Z,49.29
2023-10-08T09:24:31.513Z,47.31
2023-10-08T09:25:31.709Z,47.31
2023-10-08T09:26:31.936Z,47.19
2023-10-08T09:27:32.114Z,47.00
2023-10-08T09:28:32.257Z,47.09
2023-10-08T09:29:32.543Z,46.80
2023-10-08T09:30:32.741Z,45.81
2023-10-08T09:31:32.987Z,45.90
2023-10-08T09:32:33.099Z,46.30
2023-10-08T09:33:33.310Z,46.67
2023-10-08T09:34:33.429Z,46.97
2023-10-08T09:35:33.588Z,46.78
2023-10-08T09:36:33.840Z,47.86
2023-10-08T09:37:33.949Z,47.54
2023-10-08T09:38:34.133Z,48.03
2023-10-08T09:39:34.314Z,47.74
2023-10-08T09:40:34.501Z,48.03
2023-10-08T09:41:34.727Z,47.91
2023-10-08T09:42:34.863Z,47.81
2023-10-08T09:43:35.068Z,47.62
2023-10-08T09:44:35.283Z,46.73
2023-10-08T09:45:35.447Z,46.70
2023-10-08T09:46:35.581Z,46.70
2023-10-08T09:47:35.887Z,46.22
2023-10-08T09:48:36.046Z,46.01
2023-10-08T09:49:36.200Z,45.92
2023-10-08T09:50:36.465Z,45.79
2023-10-08T09:51:36.557Z,45.89
2023-10-08T09:52:36.726Z,45.89
2023-10-08T09:53:36.996Z,45.89
2023-10-08T09:54:37.133Z,45.28
2023-10-08T09:55:37.301Z,45.18
2023-10-08T09:56:37.495Z,44.89
2023-10-08T09:57:37.663Z,44.39
2023-10-08T09:58:37.828Z,43.80
2023-10-08T09:59:38.079Z,43.48
2023-10-08T10:00:38.198Z,43.59
2023-10-08T10:01:38.410Z,43.59
2023-10-08T10:02:38.676Z,43.29
2023-10-08T10:03:38.926Z,43.98
2023-10-08T10:04:38.983Z,44.15
2023-10-08T10:05:39.176Z,43.66
2023-10-08T10:06:39.318Z,43.46
2023-10-08T10:07:39.476Z,42.97
2023-10-08T10:08:39.827Z,43.05
2023-10-08T10:09:39.847Z,43.05
2023-10-08T10:10:40.085Z,43.15
2023-10-08T10:11:40.240Z,42.85
2023-10-08T10:12:40.434Z,42.63
2023-10-08T10:13:42.738Z,42.34
2023-10-08T10:14:40.828Z,42.14
2023-10-08T10:15:41.435Z,42.73
2023-10-08T10:16:41.171Z,42.63
2023-10-08T10:17:45.159Z,42.04
2023-10-08T10:18:41.568Z,41.83
2023-10-08T10:19:41.650Z,42.12
2023-10-08T10:20:41.862Z,42.12
2023-10-08T10:21:42.034Z,42.02
2023-10-08T10:22:42.224Z,42.32
2023-10-08T10:23:42.411Z,42.00
2023-10-08T10:24:42.602Z,41.51
2023-10-08T10:25:42.848Z,41.90
2023-10-08T10:26:43.063Z,41.71
2023-10-08T10:27:43.199Z,41.22
2023-10-08T10:28:43.347Z,41.59
2023-10-08T10:29:43.553Z,42.08
2023-10-08T10:30:43.731Z,41.88
2023-10-08T10:31:43.931Z,41.98
2023-10-08T10:32:44.213Z,41.78
2023-10-08T10:33:44.387Z,41.77
2023-10-08T10:34:44.500Z,41.56
2023-10-08T10:35:44.777Z,41.08
2023-10-08T10:36:44.836Z,40.48
2023-10-08T10:37:45.016Z,41.27
2023-10-08T10:38:45.279Z,40.39
2023-10-08T10:39:45.378Z,39.68
2023-10-08T10:40:45.571Z,40.56
2023-10-08T10:41:45.784Z,41.35
2023-10-08T10:42:45.926Z,41.06
2023-10-08T10:43:46.105Z,41.16
2023-10-08T10:44:46.317Z,40.96
2023-10-08T10:45:46.505Z,40.16
2023-10-08T10:46:46.628Z,40.35
2023-10-08T10:47:46.982Z,41.24
2023-10-08T10:48:47.060Z,40.64
2023-10-08T10:49:47.225Z,39.56
2023-10-08T10:50:47.432Z,39.17
2023-10-08T10:51:47.619Z,39.25
2023-10-08T10:52:47.814Z,39.35
2023-10-08T10:53:47.984Z,40.43
2023-10-08T10:54:48.154Z,40.43
2023-10-08T10:55:48.352Z,41.21
2023-10-08T10:56:48.607Z,41.90
2023-10-08T10:57:48.751Z,41.29
2023-10-08T10:58:48.941Z,41.49
2023-10-08T10:59:49.103Z,41.49
2023-10-08T11:00:49.325Z,40.90
2023-10-08T11:01:49.483Z,39.82
2023-10-08T11:02:49.824Z,39.01
2023-10-08T11:03:49.917Z,40.19
2023-10-08T11:04:50.137Z,40.39
2023-10-08T11:05:50.244Z,40.08
2023-10-08T11:06:50.384Z,40.27
2023-10-08T11:07:50.579Z,39.88
2023-10-08T11:08:50.827Z,39.66
2023-10-08T11:09:50.995Z,39.86
2023-10-08T11:10:51.154Z,39.84
2023-10-08T11:11:51.379Z,40.33
2023-10-08T11:12:51.522Z,40.11
2023-10-08T11:13:51.683Z,38.26
2023-10-08T11:14:51.978Z,38.65
2023-10-08T11:15:52.135Z,38.45
2023-10-08T11:16:52.252Z,38.45
2023-10-08T11:17:52.499Z,38.35
2023-10-08T11:18:52.737Z,37.87
2023-10-08T11:19:52.806Z,37.85
2023-10-08T11:20:52.975Z,36.69
2023-10-08T11:21:53.138Z,35.91
2023-10-08T11:22:53.284Z,35.32
2023-10-08T11:23:53.590Z,34.64
2023-10-08T11:24:53.665Z,34.26
2023-10-08T11:25:53.836Z,33.56
2023-10-08T11:26:54.074Z,34.44
2023-10-08T11:27:54.200Z,34.74
2023-10-08T11:28:54.404Z,35.13
2023-10-08T11:29:54.594Z,36.00
2023-10-08T11:30:54.781Z,33.95
2023-10-08T11:31:54.941Z,34.06
2023-10-08T11:32:55.158Z,33.87
2023-10-08T11:33:55.659Z,33.77
2023-10-08T11:34:55.455Z,33.69
2023-10-08T11:35:55.650Z,33.79
2023-10-08T11:36:55.815Z,33.79
2023-10-08T11:37:55.984Z,34.26
2023-10-08T11:38:56.204Z,33.67
2023-10-08T11:39:56.364Z,33.97
2023-10-08T11:40:56.536Z,33.58
2023-10-08T11:41:56.719Z,33.09
2023-10-08T11:42:56.905Z,32.89
2023-10-08T11:43:57.079Z,31.52
2023-10-08T11:44:57.302Z,32.20
2023-10-08T11:47:12.830Z,32.20
2023-10-08T11:48:12.761Z,32.32
2023-10-08T11:49:12.892Z,32.73
2023-10-08T11:50:13.091Z,32.73
2023-10-08T11:51:13.339Z,32.73
2023-10-08T11:52:15.088Z,33.12
2023-10-08T11:53:13.640Z,32.92
2023-10-08T11:54:14.032Z,33.31
2023-10-08T11:55:13.993Z,33.51
2023-10-08T11:56:14.237Z,33.80
2023-10-08T11:57:14.439Z,34.49
2023-10-08T11:58:14.564Z,36.33
2023-10-08T11:59:14.732Z,37.41
2023-10-08T12:00:28.977Z,37.81
2023-10-08T12:01:16.163Z,37.79
2023-10-08T12:02:15.310Z,38.18
2023-10-08T12:03:15.711Z,38.75
2023-10-08T12:04:16.035Z,35.52
2023-10-08T12:05:16.130Z,34.06
2023-10-08T12:06:16.154Z,37.69
2023-10-08T12:07:16.207Z,34.55
2023-10-08T12:08:16.402Z,37.49
2023-10-08T12:09:16.619Z,37.98
2023-10-08T12:10:16.817Z,37.29
2023-10-08T12:11:16.984Z,37.19
2023-10-08T12:12:18.126Z,36.92
2023-10-08T12:13:19.451Z,36.80
2023-10-08T12:14:17.520Z,36.61
2023-10-08T12:15:17.730Z,36.79
2023-10-08T12:16:17.931Z,36.79
2023-10-08T12:17:18.210Z,37.06
2023-10-08T12:18:18.392Z,37.26
2023-10-08T12:19:18.780Z,37.16
2023-10-08T12:20:18.651Z,37.34
2023-10-08T12:21:18.892Z,36.94
2023-10-08T12:22:19.289Z,37.02
2023-10-08T12:23:19.217Z,37.52
2023-10-08T12:24:19.469Z,37.91
2023-10-08T12:25:19.582Z,36.44
2023-10-08T12:26:19.743Z,36.94
2023-10-08T12:27:19.938Z,36.85
2023-10-08T12:28:20.125Z,36.15
2023-10-08T12:29:20.365Z,36.15
2023-10-08T12:30:20.526Z,35.56
2023-10-08T12:31:20.723Z,35.25
2023-10-08T12:32:20.841Z,35.45
2023-10-08T12:33:21.234Z,35.94
2023-10-08T12:34:21.240Z,36.43
2023-10-08T12:35:21.423Z,36.05
2023-10-08T12:36:21.586Z,35.07
2023-10-08T12:37:21.765Z,34.29
2023-10-08T12:38:21.948Z,34.97
2023-10-08T12:39:22.130Z,35.35
2023-10-08T12:40:22.355Z,35.16
2023-10-08T12:41:22.510Z,34.96
2023-10-08T12:42:22.692Z,34.65
2023-10-08T12:43:22.878Z,34.75
2023-10-08T12:44:23.075Z,35.24
2023-10-08T12:45:23.343Z,34.92
2023-10-08T12:46:23.413Z,35.02
2023-10-08T12:47:23.601Z,36.00
2023-10-08T12:48:23.917Z,35.30
2023-10-08T12:49:23.957Z,35.88
2023-10-08T12:50:24.151Z,35.77
2023-10-08T12:51:24.314Z,35.86
2023-10-08T12:52:24.531Z,36.53
2023-10-08T12:53:24.735Z,36.53
2023-10-08T12:54:24.910Z,36.51
2023-10-08T12:55:25.128Z,36.61
2023-10-08T12:56:25.263Z,36.49
2023-10-08T12:57:25.455Z,36.49